sensor_id;sensor_type;location;lat;lon;timestamp;temperature;humidity
25058;DHT22;13057;50.978;11.034;2023-05-07T00:02:03;12.40;99.90
25058;DHT22;13057;50.978;11.034;2023-05-07T00:04:29;12.40;99.90
25058;DHT22;13057;50.978;11.034;2023-05-07T00:07:02;12.40;99.90
25058;DHT22;13057;50.978;11.034;2023-05-07T00:09:28;12.40;99.90
25058;DHT22;13057;50.978;11.034;2023-05-07T00:11:54;12.40;99.90
25058;DHT22;13057;50.978;11.034;2023-05-07T00:14:20;12.40;99.90
25058;DHT22;13057;50.978;11.034;2023-05-07T00:16:46;12.30;99.90
25058;DHT22;13057;50.978;11.034;2023-05-07T00:19:12;12.40;99.90
25058;DHT22;13057;50.978;11.034;2023-05-07T00:21:38;12.40;99.90
25058;DHT22;13057;50.978;11.034;2023-05-07T00:24:04;12.40;99.90
25058;DHT22;13057;50.978;11.034;2023-05-07T00:26:30;12.40;99.90
25058;DHT22;13057;50.978;11.034;2023-05-07T00:28:56;12.40;99.90
25058;DHT22;13057;50.978;11.034;2023-05-07T00:31:22;12.30;99.90
25058;DHT22;13057;50.978;11.034;2023-05-07T00:33:47;12.20;99.90
25058;DHT22;13057;50.978;11.034;2023-05-07T00:36:13;12.30;99.90
25058;DHT22;13057;50.978;11.034;2023-05-07T00:38:39;12.40;99.90
25058;DHT22;13057;50.978;11.034;2023-05-07T00:41:06;12.30;99.90
25058;DHT22;13057;50.978;11.034;2023-05-07T00:43:32;12.20;99.90
25058;DHT22;13057;50.978;11.034;2023-05-07T00:45:58;12.20;99.90
25058;DHT22;13057;50.978;11.034;2023-05-07T00:48:25;12.30;99.90
25058;DHT22;13057;50.978;11.034;2023-05-07T00:50:51;12.20;99.90
25058;DHT22;13057;50.978;11.034;2023-05-07T00:53:17;12.20;99.90
25058;DHT22;13057;50.978;11.034;2023-05-07T00:55:43;12.20;99.90
25058;DHT22;13057;50.978;11.034;2023-05-07T00:58:09;12.20;99.90
25058;DHT22;13057;50.978;11.034;2023-05-07T01:00:35;12.10;99.90
25058;DHT22;13057;50.978;11.034;2023-05-07T01:03:01;12.10;99.90
25058;DHT22;13057;50.978;11.034;2023-05-07T01:05:28;12.10;99.90
25058;DHT22;13057;50.978;11.034;2023-05-07T01:07:55;12.10;99.90
25058;DHT22;13057;50.978;11.034;2023-05-07T01:10:22;12.10;99.90
25058;DHT22;13057;50.978;11.034;2023-05-07T01:12:49;12.00;99.90
25058;DHT22;13057;50.978;11.034;2023-05-07T01:15:16;12.00;99.90
25058;DHT22;13057;50.978;11.034;2023-05-07T01:17:43;12.00;99.90
25058;DHT22;13057;50.978;11.034;2023-05-07T01:20:09;12.00;99.90
25058;DHT22;13057;50.978;11.034;2023-05-07T01:22:37;12.00;99.90
25058;DHT22;13057;50.978;11.034;2023-05-07T01:25:05;12.00;99.90
25058;DHT22;13057;50.978;11.034;2023-05-07T01:27:31;11.90;99.90
25058;DHT22;13057;50.978;11.034;2023-05-07T01:29:59;11.90;99.90
25058;DHT22;13057;50.978;11.034;2023-05-07T01:32:32;11.90;99.90
25058;DHT22;13057;50.978;11.034;2023-05-07T01:35:00;11.90;99.90
25058;DHT22;13057;50.978;11.034;2023-05-07T01:37:26;12.00;99.90
25058;DHT22;13057;50.978;11.034;2023-05-07T01:39:52;12.00;99.90
25058;DHT22;13057;50.978;11.034;2023-05-07T01:42:19;11.90;99.90
25058;DHT22;13057;50.978;11.034;2023-05-07T01:44:46;11.90;99.90
25058;DHT22;13057;50.978;11.034;2023-05-07T01:47:12;11.90;99.90
25058;DHT22;13057;50.978;11.034;2023-05-07T01:49:40;11.90;99.90
25058;DHT22;13057;50.978;11.034;2023-05-07T01:52:06;11.90;99.90
25058;DHT22;13057;50.978;11.034;2023-05-07T01:54:31;11.90;99.90
25058;DHT22;13057;50.978;11.034;2023-05-07T01:56:57;12.00;99.90
25058;DHT22;13057;50.978;11.034;2023-05-07T01:59:23;12.00;99.90
25058;DHT22;13057;50.978;11.034;2023-05-07T02:01:49;12.00;99.90
25058;DHT22;13057;50.978;11.034;2023-05-07T02:04:15;12.00;99.90
25058;DHT22;13057;50.978;11.034;2023-05-07T02:06:41;12.00;99.90
25058;DHT22;13057;50.978;11.034;2023-05-07T02:09:06;12.00;99.90
25058;DHT22;13057;50.978;11.034;2023-05-07T02:11:34;12.00;99.90
25058;DHT22;13057;50.978;11.034;2023-05-07T02:14:00;12.00;99.90
25058;DHT22;13057;50.978;11.034;2023-05-07T02:16:26;12.00;99.90
25058;DHT22;13057;50.978;11.034;2023-05-07T02:18:52;12.00;99.90
25058;DHT22;13057;50.978;11.034;2023-05-07T02:21:18;12.00;99.90
25058;DHT22;13057;50.978;11.034;2023-05-07T02:23:44;12.00;99.90
25058;DHT22;13057;50.978;11.034;2023-05-07T02:26:10;12.00;99.90
25058;DHT22;13057;50.978;11.034;2023-05-07T02:28:36;12.00;99.90
25058;DHT22;13057;50.978;11.034;2023-05-07T02:31:03;12.00;99.90
25058;DHT22;13057;50.978;11.034;2023-05-07T02:33:29;12.10;99.90
25058;DHT22;13057;50.978;11.034;2023-05-07T02:35:56;12.10;99.90
25058;DHT22;13057;50.978;11.034;2023-05-07T02:38:22;12.00;99.90
25058;DHT22;13057;50.978;11.034;2023-05-07T02:40:49;12.00;99.90
25058;DHT22;13057;50.978;11.034;2023-05-07T02:43:14;12.00;99.90
25058;DHT22;13057;50.978;11.034;2023-05-07T02:45:40;12.00;99.90
25058;DHT22;13057;50.978;11.034;2023-05-07T02:48:06;12.00;99.90
25058;DHT22;13057;50.978;11.034;2023-05-07T02:50:32;12.00;99.90
25058;DHT22;13057;50.978;11.034;2023-05-07T02:52:58;11.90;99.90
25058;DHT22;13057;50.978;11.034;2023-05-07T02:55:25;12.00;99.90
25058;DHT22;13057;50.978;11.034;2023-05-07T02:57:50;11.90;99.90
25058;DHT22;13057;50.978;11.034;2023-05-07T03:00:18;11.90;99.90
25058;DHT22;13057;50.978;11.034;2023-05-07T03:02:44;11.90;99.90
25058;DHT22;13057;50.978;11.034;2023-05-07T03:05:10;11.90;99.90
25058;DHT22;13057;50.978;11.034;2023-05-07T03:07:37;11.80;99.90
25058;DHT22;13057;50.978;11.034;2023-05-07T03:10:04;11.80;99.90
25058;DHT22;13057;50.978;11.034;2023-05-07T03:12:30;11.80;99.90
25058;DHT22;13057;50.978;11.034;2023-05-07T03:14:57;11.90;99.90
25058;DHT22;13057;50.978;11.034;2023-05-07T03:17:22;11.90;99.90
25058;DHT22;13057;50.978;11.034;2023-05-07T03:19:48;11.90;99.90
25058;DHT22;13057;50.978;11.034;2023-05-07T03:22:14;11.90;99.90
25058;DHT22;13057;50.978;11.034;2023-05-07T03:24:40;11.90;99.90
25058;DHT22;13057;50.978;11.034;2023-05-07T03:27:06;11.80;99.90
25058;DHT22;13057;50.978;11.034;2023-05-07T03:29:32;11.80;99.90
25058;DHT22;13057;50.978;11.034;2023-05-07T03:31:58;11.80;99.90
25058;DHT22;13057;50.978;11.034;2023-05-07T03:34:24;11.80;99.90
25058;DHT22;13057;50.978;11.034;2023-05-07T03:36:50;11.80;99.90
25058;DHT22;13057;50.978;11.034;2023-05-07T03:39:16;11.70;99.90
25058;DHT22;13057;50.978;11.034;2023-05-07T03:41:42;11.70;99.90
25058;DHT22;13057;50.978;11.034;2023-05-07T03:44:08;11.70;99.90
25058;DHT22;13057;50.978;11.034;2023-05-07T03:46:34;11.70;99.90
25058;DHT22;13057;50.978;11.034;2023-05-07T03:49:00;11.60;99.90
25058;DHT22;13057;50.978;11.034;2023-05-07T03:51:26;11.60;99.90
25058;DHT22;13057;50.978;11.034;2023-05-07T03:53:52;11.60;99.90
25058;DHT22;13057;50.978;11.034;2023-05-07T03:56:19;11.60;99.90
25058;DHT22;13057;50.978;11.034;2023-05-07T03:58:45;11.60;99.90
25058;DHT22;13057;50.978;11.034;2023-05-07T04:01:11;11.60;99.90
25058;DHT22;13057;50.978;11.034;2023-05-07T04:03:37;11.70;99.90
25058;DHT22;13057;50.978;11.034;2023-05-07T04:06:03;11.70;99.90
25058;DHT22;13057;50.978;11.034;2023-05-07T04:08:29;11.70;99.90
25058;DHT22;13057;50.978;11.034;2023-05-07T04:10:56;11.70;99.90
25058;DHT22;13057;50.978;11.034;2023-05-07T04:13:22;11.70;99.90
25058;DHT22;13057;50.978;11.034;2023-05-07T04:15:51;11.70;99.90
25058;DHT22;13057;50.978;11.034;2023-05-07T04:18:17;11.80;99.90
25058;DHT22;13057;50.978;11.034;2023-05-07T04:20:43;11.70;99.90
25058;DHT22;13057;50.978;11.034;2023-05-07T04:23:09;11.70;99.90
25058;DHT22;13057;50.978;11.034;2023-05-07T04:25:35;11.70;99.90
25058;DHT22;13057;50.978;11.034;2023-05-07T04:28:01;11.70;99.90
25058;DHT22;13057;50.978;11.034;2023-05-07T04:30:27;11.70;99.90
25058;DHT22;13057;50.978;11.034;2023-05-07T04:32:53;11.70;99.90
25058;DHT22;13057;50.978;11.034;2023-05-07T04:35:19;11.70;99.90
25058;DHT22;13057;50.978;11.034;2023-05-07T04:37:45;11.80;99.90
25058;DHT22;13057;50.978;11.034;2023-05-07T04:40:11;11.80;99.90
25058;DHT22;13057;50.978;11.034;2023-05-07T04:42:36;11.80;99.90
25058;DHT22;13057;50.978;11.034;2023-05-07T04:45:02;11.80;99.90
25058;DHT22;13057;50.978;11.034;2023-05-07T04:47:29;11.80;99.90
25058;DHT22;13057;50.978;11.034;2023-05-07T04:49:55;11.80;99.90
25058;DHT22;13057;50.978;11.034;2023-05-07T04:52:20;11.80;99.90
25058;DHT22;13057;50.978;11.034;2023-05-07T04:54:46;11.70;99.90
25058;DHT22;13057;50.978;11.034;2023-05-07T04:57:12;11.70;99.90
25058;DHT22;13057;50.978;11.034;2023-05-07T04:59:38;11.70;99.90
25058;DHT22;13057;50.978;11.034;2023-05-07T05:02:04;11.70;99.90
25058;DHT22;13057;50.978;11.034;2023-05-07T05:04:30;11.80;99.90
25058;DHT22;13057;50.978;11.034;2023-05-07T05:06:56;11.80;99.90
25058;DHT22;13057;50.978;11.034;2023-05-07T05:09:22;11.80;99.90
25058;DHT22;13057;50.978;11.034;2023-05-07T05:11:48;11.70;99.90
25058;DHT22;13057;50.978;11.034;2023-05-07T05:14:14;11.70;99.90
25058;DHT22;13057;50.978;11.034;2023-05-07T05:16:40;11.70;99.90
25058;DHT22;13057;50.978;11.034;2023-05-07T05:19:05;11.80;99.90
25058;DHT22;13057;50.978;11.034;2023-05-07T05:21:32;11.80;99.90
25058;DHT22;13057;50.978;11.034;2023-05-07T05:23:58;11.70;99.90
25058;DHT22;13057;50.978;11.034;2023-05-07T05:26:24;11.70;99.90
25058;DHT22;13057;50.978;11.034;2023-05-07T05:28:50;11.60;99.90
25058;DHT22;13057;50.978;11.034;2023-05-07T05:31:16;11.70;99.90
25058;DHT22;13057;50.978;11.034;2023-05-07T05:33:42;11.60;99.90
25058;DHT22;13057;50.978;11.034;2023-05-07T05:36:10;11.50;99.90
25058;DHT22;13057;50.978;11.034;2023-05-07T05:38:36;11.50;99.90
25058;DHT22;13057;50.978;11.034;2023-05-07T05:41:02;11.50;99.90
25058;DHT22;13057;50.978;11.034;2023-05-07T05:43:28;11.50;99.90
25058;DHT22;13057;50.978;11.034;2023-05-07T05:45:56;11.50;99.90
25058;DHT22;13057;50.978;11.034;2023-05-07T05:48:22;11.50;99.90
25058;DHT22;13057;50.978;11.034;2023-05-07T05:50:48;11.50;99.90
25058;DHT22;13057;50.978;11.034;2023-05-07T05:53:14;11.50;99.90
25058;DHT22;13057;50.978;11.034;2023-05-07T05:55:40;11.50;99.90
25058;DHT22;13057;50.978;11.034;2023-05-07T05:58:06;11.50;99.90
25058;DHT22;13057;50.978;11.034;2023-05-07T06:00:32;11.50;99.90
25058;DHT22;13057;50.978;11.034;2023-05-07T06:02:58;11.50;99.90
25058;DHT22;13057;50.978;11.034;2023-05-07T06:05:24;11.50;99.90
25058;DHT22;13057;50.978;11.034;2023-05-07T06:07:50;11.40;99.90
25058;DHT22;13057;50.978;11.034;2023-05-07T06:10:16;11.50;99.90
25058;DHT22;13057;50.978;11.034;2023-05-07T06:12:42;11.40;99.90
25058;DHT22;13057;50.978;11.034;2023-05-07T06:15:08;11.40;99.90
25058;DHT22;13057;50.978;11.034;2023-05-07T06:17:34;11.40;99.90
25058;DHT22;13057;50.978;11.034;2023-05-07T06:20:00;11.40;99.90
25058;DHT22;13057;50.978;11.034;2023-05-07T06:22:26;11.30;99.90
25058;DHT22;13057;50.978;11.034;2023-05-07T06:24:53;11.30;99.90
25058;DHT22;13057;50.978;11.034;2023-05-07T06:27:18;11.20;99.90
25058;DHT22;13057;50.978;11.034;2023-05-07T06:29:44;11.20;99.90
25058;DHT22;13057;50.978;11.034;2023-05-07T06:32:12;11.20;99.90
25058;DHT22;13057;50.978;11.034;2023-05-07T06:34:38;11.20;99.90
25058;DHT22;13057;50.978;11.034;2023-05-07T06:37:05;11.20;99.90
25058;DHT22;13057;50.978;11.034;2023-05-07T06:39:31;11.20;99.90
25058;DHT22;13057;50.978;11.034;2023-05-07T06:41:57;11.30;99.90
25058;DHT22;13057;50.978;11.034;2023-05-07T06:44:23;11.30;99.90
25058;DHT22;13057;50.978;11.034;2023-05-07T06:46:50;11.30;99.90
25058;DHT22;13057;50.978;11.034;2023-05-07T06:49:16;11.30;99.90
25058;DHT22;13057;50.978;11.034;2023-05-07T06:51:42;11.30;99.90
25058;DHT22;13057;50.978;11.034;2023-05-07T06:54:08;11.40;99.90
25058;DHT22;13057;50.978;11.034;2023-05-07T06:56:34;11.40;99.90
25058;DHT22;13057;50.978;11.034;2023-05-07T06:59:01;11.40;99.90
25058;DHT22;13057;50.978;11.034;2023-05-07T07:01:28;11.40;99.90
25058;DHT22;13057;50.978;11.034;2023-05-07T07:03:53;11.40;99.90
25058;DHT22;13057;50.978;11.034;2023-05-07T07:06:19;11.40;99.90
25058;DHT22;13057;50.978;11.034;2023-05-07T07:08:46;11.40;99.90
25058;DHT22;13057;50.978;11.034;2023-05-07T07:11:12;11.40;99.90
25058;DHT22;13057;50.978;11.034;2023-05-07T07:13:38;11.40;99.90
25058;DHT22;13057;50.978;11.034;2023-05-07T07:16:05;11.40;99.90
25058;DHT22;13057;50.978;11.034;2023-05-07T07:18:32;11.40;99.90
25058;DHT22;13057;50.978;11.034;2023-05-07T07:20:58;11.50;99.90
25058;DHT22;13057;50.978;11.034;2023-05-07T07:23:25;11.50;99.90
25058;DHT22;13057;50.978;11.034;2023-05-07T07:25:51;11.50;99.90
25058;DHT22;13057;50.978;11.034;2023-05-07T07:28:17;11.50;99.90
25058;DHT22;13057;50.978;11.034;2023-05-07T07:30:43;11.50;99.90
25058;DHT22;13057;50.978;11.034;2023-05-07T07:33:09;11.60;99.90
25058;DHT22;13057;50.978;11.034;2023-05-07T07:35:35;11.60;99.90
25058;DHT22;13057;50.978;11.034;2023-05-07T07:38:01;11.50;99.90
25058;DHT22;13057;50.978;11.034;2023-05-07T07:40:27;11.60;99.90
25058;DHT22;13057;50.978;11.034;2023-05-07T07:42:54;11.60;99.90
25058;DHT22;13057;50.978;11.034;2023-05-07T07:45:20;11.60;99.90
25058;DHT22;13057;50.978;11.034;2023-05-07T07:47:46;11.60;99.90
25058;DHT22;13057;50.978;11.034;2023-05-07T07:50:12;11.60;99.90
25058;DHT22;13057;50.978;11.034;2023-05-07T07:52:38;11.70;99.90
25058;DHT22;13057;50.978;11.034;2023-05-07T07:55:04;11.70;99.90
25058;DHT22;13057;50.978;11.034;2023-05-07T07:57:30;11.60;99.90
25058;DHT22;13057;50.978;11.034;2023-05-07T07:59:56;11.50;99.90
25058;DHT22;13057;50.978;11.034;2023-05-07T08:02:22;11.50;99.90
25058;DHT22;13057;50.978;11.034;2023-05-07T08:04:48;11.60;99.90
25058;DHT22;13057;50.978;11.034;2023-05-07T08:07:14;11.60;99.90
25058;DHT22;13057;50.978;11.034;2023-05-07T08:09:40;11.70;99.90
25058;DHT22;13057;50.978;11.034;2023-05-07T08:12:07;11.70;99.90
25058;DHT22;13057;50.978;11.034;2023-05-07T08:14:33;11.70;99.90
25058;DHT22;13057;50.978;11.034;2023-05-07T08:16:59;11.70;99.90
25058;DHT22;13057;50.978;11.034;2023-05-07T08:19:26;11.60;99.90
25058;DHT22;13057;50.978;11.034;2023-05-07T08:21:52;11.60;99.90
25058;DHT22;13057;50.978;11.034;2023-05-07T08:24:19;11.60;99.90
25058;DHT22;13057;50.978;11.034;2023-05-07T08:26:45;11.60;99.90
25058;DHT22;13057;50.978;11.034;2023-05-07T08:29:11;11.60;99.90
25058;DHT22;13057;50.978;11.034;2023-05-07T08:31:37;11.60;99.90
25058;DHT22;13057;50.978;11.034;2023-05-07T08:34:06;11.70;99.90
25058;DHT22;13057;50.978;11.034;2023-05-07T08:36:32;11.70;99.90
25058;DHT22;13057;50.978;11.034;2023-05-07T08:38:59;11.70;99.90
25058;DHT22;13057;50.978;11.034;2023-05-07T08:41:25;11.70;99.90
25058;DHT22;13057;50.978;11.034;2023-05-07T08:43:51;11.70;99.90
25058;DHT22;13057;50.978;11.034;2023-05-07T08:46:19;11.70;99.90
25058;DHT22;13057;50.978;11.034;2023-05-07T08:48:49;11.80;99.90
25058;DHT22;13057;50.978;11.034;2023-05-07T08:51:17;11.80;99.90
25058;DHT22;13057;50.978;11.034;2023-05-07T08:53:43;11.80;99.90
25058;DHT22;13057;50.978;11.034;2023-05-07T08:56:09;11.80;99.90
25058;DHT22;13057;50.978;11.034;2023-05-07T08:58:36;11.80;99.90
25058;DHT22;13057;50.978;11.034;2023-05-07T09:01:07;11.70;99.90
25058;DHT22;13057;50.978;11.034;2023-05-07T09:03:33;11.70;99.90
25058;DHT22;13057;50.978;11.034;2023-05-07T09:05:59;11.80;99.90
25058;DHT22;13057;50.978;11.034;2023-05-07T09:08:27;11.90;99.90
25058;DHT22;13057;50.978;11.034;2023-05-07T09:10:53;11.90;99.90
25058;DHT22;13057;50.978;11.034;2023-05-07T09:13:19;12.00;99.90
25058;DHT22;13057;50.978;11.034;2023-05-07T09:15:46;12.00;99.90
25058;DHT22;13057;50.978;11.034;2023-05-07T09:18:13;12.00;99.90
25058;DHT22;13057;50.978;11.034;2023-05-07T09:20:40;12.10;99.90
25058;DHT22;13057;50.978;11.034;2023-05-07T09:23:13;12.10;99.90
25058;DHT22;13057;50.978;11.034;2023-05-07T09:25:39;12.10;99.90
25058;DHT22;13057;50.978;11.034;2023-05-07T09:28:05;12.10;99.90
25058;DHT22;13057;50.978;11.034;2023-05-07T09:30:33;12.10;99.90
25058;DHT22;13057;50.978;11.034;2023-05-07T09:33:01;12.10;99.90
25058;DHT22;13057;50.978;11.034;2023-05-07T09:35:27;12.10;99.90
25058;DHT22;13057;50.978;11.034;2023-05-07T09:38:00;12.10;99.90
25058;DHT22;13057;50.978;11.034;2023-05-07T09:40:28;12.10;99.90
25058;DHT22;13057;50.978;11.034;2023-05-07T09:42:55;12.10;99.90
25058;DHT22;13057;50.978;11.034;2023-05-07T09:45:25;12.20;99.90
25058;DHT22;13057;50.978;11.034;2023-05-07T09:47:55;12.20;99.90
25058;DHT22;13057;50.978;11.034;2023-05-07T09:50:27;12.20;99.90
25058;DHT22;13057;50.978;11.034;2023-05-07T09:52:55;12.30;99.90
25058;DHT22;13057;50.978;11.034;2023-05-07T09:55:22;12.30;99.90
25058;DHT22;13057;50.978;11.034;2023-05-07T09:57:50;12.40;99.90
25058;DHT22;13057;50.978;11.034;2023-05-07T10:00:21;12.40;99.90
25058;DHT22;13057;50.978;11.034;2023-05-07T10:02:50;12.40;99.90
25058;DHT22;13057;50.978;11.034;2023-05-07T10:05:21;12.40;99.90
25058;DHT22;13057;50.978;11.034;2023-05-07T10:07:48;12.40;99.90
25058;DHT22;13057;50.978;11.034;2023-05-07T10:10:14;12.40;99.90
25058;DHT22;13057;50.978;11.034;2023-05-07T10:12:41;12.40;99.90
25058;DHT22;13057;50.978;11.034;2023-05-07T10:15:09;12.40;99.90
25058;DHT22;13057;50.978;11.034;2023-05-07T10:17:38;12.40;99.90
25058;DHT22;13057;50.978;11.034;2023-05-07T10:20:08;12.40;99.90
25058;DHT22;13057;50.978;11.034;2023-05-07T10:22:39;12.50;99.90
25058;DHT22;13057;50.978;11.034;2023-05-07T10:25:22;12.50;99.90
25058;DHT22;13057;50.978;11.034;2023-05-07T10:27:50;12.50;99.90
25058;DHT22;13057;50.978;11.034;2023-05-07T10:30:37;12.50;99.90
25058;DHT22;13057;50.978;11.034;2023-05-07T10:33:07;12.50;99.90
25058;DHT22;13057;50.978;11.034;2023-05-07T10:35:41;12.60;99.90
25058;DHT22;13057;50.978;11.034;2023-05-07T10:38:10;12.60;99.90
25058;DHT22;13057;50.978;11.034;2023-05-07T10:40:36;12.70;99.90
25058;DHT22;13057;50.978;11.034;2023-05-07T10:43:05;12.60;99.90
25058;DHT22;13057;50.978;11.034;2023-05-07T10:45:31;12.60;99.90
25058;DHT22;13057;50.978;11.034;2023-05-07T10:48:10;12.60;99.90
25058;DHT22;13057;50.978;11.034;2023-05-07T10:50:38;12.70;99.90
25058;DHT22;13057;50.978;11.034;2023-05-07T10:53:21;12.70;99.90
25058;DHT22;13057;50.978;11.034;2023-05-07T10:55:51;12.70;99.90
25058;DHT22;13057;50.978;11.034;2023-05-07T10:58:37;12.70;99.90
25058;DHT22;13057;50.978;11.034;2023-05-07T11:01:03;12.80;99.90
25058;DHT22;13057;50.978;11.034;2023-05-07T11:03:29;12.90;99.90
25058;DHT22;13057;50.978;11.034;2023-05-07T11:06:11;12.90;99.90
25058;DHT22;13057;50.978;11.034;2023-05-07T11:08:53;12.90;99.90
25058;DHT22;13057;50.978;11.034;2023-05-07T11:11:20;13.00;99.90
25058;DHT22;13057;50.978;11.034;2023-05-07T11:13:47;13.00;99.90
25058;DHT22;13057;50.978;11.034;2023-05-07T11:16:18;13.00;99.90
25058;DHT22;13057;50.978;11.034;2023-05-07T11:18:49;13.00;99.90
25058;DHT22;13057;50.978;11.034;2023-05-07T11:21:41;13.00;99.90
25058;DHT22;13057;50.978;11.034;2023-05-07T11:24:09;13.00;99.90
25058;DHT22;13057;50.978;11.034;2023-05-07T11:26:44;12.90;99.90
25058;DHT22;13057;50.978;11.034;2023-05-07T11:29:11;13.00;99.90
25058;DHT22;13057;50.978;11.034;2023-05-07T11:31:37;13.00;99.90
25058;DHT22;13057;50.978;11.034;2023-05-07T11:34:05;13.00;99.90
25058;DHT22;13057;50.978;11.034;2023-05-07T11:36:32;13.10;99.90
25058;DHT22;13057;50.978;11.034;2023-05-07T11:38:58;13.20;99.90
25058;DHT22;13057;50.978;11.034;2023-05-07T11:41:34;13.20;99.90
25058;DHT22;13057;50.978;11.034;2023-05-07T11:44:02;13.20;99.90
25058;DHT22;13057;50.978;11.034;2023-05-07T11:46:28;13.20;99.90
25058;DHT22;13057;50.978;11.034;2023-05-07T11:48:55;13.30;99.90
25058;DHT22;13057;50.978;11.034;2023-05-07T11:51:24;13.30;99.90
25058;DHT22;13057;50.978;11.034;2023-05-07T11:53:51;13.40;99.90
25058;DHT22;13057;50.978;11.034;2023-05-07T11:56:18;13.40;99.90
25058;DHT22;13057;50.978;11.034;2023-05-07T11:58:45;13.40;99.90
25058;DHT22;13057;50.978;11.034;2023-05-07T12:01:12;13.30;99.90
25058;DHT22;13057;50.978;11.034;2023-05-07T12:03:41;13.30;99.90
25058;DHT22;13057;50.978;11.034;2023-05-07T12:06:08;13.40;99.90
25058;DHT22;13057;50.978;11.034;2023-05-07T12:08:37;13.40;99.90
25058;DHT22;13057;50.978;11.034;2023-05-07T12:11:03;13.50;99.90
25058;DHT22;13057;50.978;11.034;2023-05-07T12:13:32;13.50;99.90
25058;DHT22;13057;50.978;11.034;2023-05-07T12:15:58;13.50;99.90
25058;DHT22;13057;50.978;11.034;2023-05-07T12:18:24;13.50;99.90
25058;DHT22;13057;50.978;11.034;2023-05-07T12:20:51;13.40;99.90
25058;DHT22;13057;50.978;11.034;2023-05-07T12:23:17;13.40;99.90
25058;DHT22;13057;50.978;11.034;2023-05-07T12:25:43;13.50;99.90
25058;DHT22;13057;50.978;11.034;2023-05-07T12:28:15;13.60;99.90
25058;DHT22;13057;50.978;11.034;2023-05-07T12:30:43;13.60;99.90
25058;DHT22;13057;50.978;11.034;2023-05-07T12:33:09;13.60;99.90
25058;DHT22;13057;50.978;11.034;2023-05-07T12:35:39;13.60;99.90
25058;DHT22;13057;50.978;11.034;2023-05-07T12:38:13;13.60;99.90
25058;DHT22;13057;50.978;11.034;2023-05-07T12:40:44;13.60;99.90
25058;DHT22;13057;50.978;11.034;2023-05-07T12:43:24;13.60;99.90
25058;DHT22;13057;50.978;11.034;2023-05-07T12:45:51;13.70;99.90
25058;DHT22;13057;50.978;11.034;2023-05-07T12:48:20;13.80;99.90
25058;DHT22;13057;50.978;11.034;2023-05-07T12:50:50;13.90;99.90
25058;DHT22;13057;50.978;11.034;2023-05-07T12:53:16;13.90;99.90
25058;DHT22;13057;50.978;11.034;2023-05-07T12:55:44;13.90;99.90
25058;DHT22;13057;50.978;11.034;2023-05-07T12:58:20;14.00;99.90
25058;DHT22;13057;50.978;11.034;2023-05-07T13:00:49;14.10;99.90
25058;DHT22;13057;50.978;11.034;2023-05-07T13:03:22;14.10;99.90
25058;DHT22;13057;50.978;11.034;2023-05-07T13:05:49;14.10;99.90
25058;DHT22;13057;50.978;11.034;2023-05-07T13:08:28;14.10;99.90
25058;DHT22;13057;50.978;11.034;2023-05-07T13:10:54;14.10;99.90
25058;DHT22;13057;50.978;11.034;2023-05-07T13:13:21;14.10;99.90
25058;DHT22;13057;50.978;11.034;2023-05-07T13:15:47;14.20;99.90
25058;DHT22;13057;50.978;11.034;2023-05-07T13:18:13;14.30;99.90
25058;DHT22;13057;50.978;11.034;2023-05-07T13:20:40;14.30;99.90
25058;DHT22;13057;50.978;11.034;2023-05-07T13:23:06;14.40;99.90
25058;DHT22;13057;50.978;11.034;2023-05-07T13:25:32;14.50;99.90
25058;DHT22;13057;50.978;11.034;2023-05-07T13:27:57;14.60;99.90
25058;DHT22;13057;50.978;11.034;2023-05-07T13:30:24;14.60;99.90
25058;DHT22;13057;50.978;11.034;2023-05-07T13:32:50;14.50;99.90
25058;DHT22;13057;50.978;11.034;2023-05-07T13:35:17;14.50;99.90
25058;DHT22;13057;50.978;11.034;2023-05-07T13:37:43;14.60;99.90
25058;DHT22;13057;50.978;11.034;2023-05-07T13:40:09;14.50;99.90
25058;DHT22;13057;50.978;11.034;2023-05-07T13:42:35;14.50;99.90
25058;DHT22;13057;50.978;11.034;2023-05-07T13:45:01;14.60;99.90
25058;DHT22;13057;50.978;11.034;2023-05-07T13:47:30;14.50;99.90
25058;DHT22;13057;50.978;11.034;2023-05-07T13:49:57;14.40;99.90
25058;DHT22;13057;50.978;11.034;2023-05-07T13:52:23;14.30;99.90
25058;DHT22;13057;50.978;11.034;2023-05-07T13:54:49;14.20;99.90
25058;DHT22;13057;50.978;11.034;2023-05-07T13:57:17;14.20;99.90
25058;DHT22;13057;50.978;11.034;2023-05-07T13:59:44;14.30;99.90
25058;DHT22;13057;50.978;11.034;2023-05-07T14:02:09;14.30;99.90
25058;DHT22;13057;50.978;11.034;2023-05-07T14:04:36;14.30;99.90
25058;DHT22;13057;50.978;11.034;2023-05-07T14:07:03;14.30;99.90
25058;DHT22;13057;50.978;11.034;2023-05-07T14:09:29;14.40;99.90
25058;DHT22;13057;50.978;11.034;2023-05-07T14:11:55;14.40;99.90
25058;DHT22;13057;50.978;11.034;2023-05-07T14:14:21;14.40;99.90
25058;DHT22;13057;50.978;11.034;2023-05-07T14:16:47;14.30;99.90
25058;DHT22;13057;50.978;11.034;2023-05-07T14:19:16;14.30;99.90
25058;DHT22;13057;50.978;11.034;2023-05-07T14:21:42;14.30;99.90
25058;DHT22;13057;50.978;11.034;2023-05-07T14:24:08;14.30;99.90
25058;DHT22;13057;50.978;11.034;2023-05-07T14:26:36;14.30;99.90
25058;DHT22;13057;50.978;11.034;2023-05-07T14:29:02;14.40;99.90
25058;DHT22;13057;50.978;11.034;2023-05-07T14:31:28;14.50;99.90
25058;DHT22;13057;50.978;11.034;2023-05-07T14:33:54;14.50;99.90
25058;DHT22;13057;50.978;11.034;2023-05-07T14:36:20;14.60;99.90
25058;DHT22;13057;50.978;11.034;2023-05-07T14:38:49;14.80;99.90
25058;DHT22;13057;50.978;11.034;2023-05-07T14:41:18;14.80;99.90
25058;DHT22;13057;50.978;11.034;2023-05-07T14:43:43;14.70;99.90
25058;DHT22;13057;50.978;11.034;2023-05-07T14:46:17;14.60;99.90
25058;DHT22;13057;50.978;11.034;2023-05-07T14:48:44;14.60;99.90
25058;DHT22;13057;50.978;11.034;2023-05-07T14:51:10;14.70;99.90
25058;DHT22;13057;50.978;11.034;2023-05-07T14:53:41;14.70;99.90
25058;DHT22;13057;50.978;11.034;2023-05-07T14:56:07;14.60;99.90
25058;DHT22;13057;50.978;11.034;2023-05-07T14:58:33;14.60;99.90
25058;DHT22;13057;50.978;11.034;2023-05-07T15:01:00;14.50;99.90
25058;DHT22;13057;50.978;11.034;2023-05-07T15:03:26;14.50;99.90
25058;DHT22;13057;50.978;11.034;2023-05-07T15:05:52;14.50;99.90
25058;DHT22;13057;50.978;11.034;2023-05-07T15:08:18;14.50;99.90
25058;DHT22;13057;50.978;11.034;2023-05-07T15:10:44;14.50;99.90
25058;DHT22;13057;50.978;11.034;2023-05-07T15:13:11;14.50;99.90
25058;DHT22;13057;50.978;11.034;2023-05-07T15:15:38;14.50;99.90